Aérodrome :
LOGIN :

S'inscrire | Disclaimer

   EN    FR    IT 

 










Légende :    VFR   VFR Marginal   IFR   IFR Intensif   IFR Très Intensif
Visi : 
Plafond : 
>= 8 km
>= 3000ft
5 à 8 km
1000 à 3000 ft
1500m à 5 km
500 à 1000 ft
800 à 1500m
200 à 500 ft
< 800m
< 200 ft
Symboles :   Orages  Brouillard  Fortes neiges  Fortes précipitations  Vent > 20 kt
SIGMETs :   Divers  Orages  Givrage  Turbulence  Onde Orograph.  Cendres Volcan.







- Altitude de l'aérodrome : 17 ft
- Code IATA : GRQ


EHGG - Groningen Eelde

DERNIER METAR :
  • 251025Z AUTO 33018G29KT 280V010 9999 FEW025 SCT029 BKN033 09/03 Q1019 TEMPO 33020G35KT 7000 SHRA SCT020CB

METARs EXPIRÉS :
  • 250955Z AUTO 32017KT 280V350 9999 FEW021 BKN024 BKN028 08/03 Q1019 TEMPO 33020G35KT 7000 SHRA SCT020CB
  • 250925Z AUTO 33019KT 290V360 9999 -RADZ BKN021 BKN025 BKN029 07/03 Q1019 TEMPO 33020G35KT 7000 SHRA SCT020CB
  • 250855Z AUTO 33022G33KT 300V010 9999 SCT023 BKN027 BKN032 07/03 Q1018 TEMPO 30020G35KT 7000 SHRA SCT020CB
  • 250825Z AUTO 33018G28KT 290V010 9999 SCT018 BKN021 BKN026 07/03 Q1018 TEMPO 30020G35KT 4000 SHRA SCT020CB
  • 250755Z AUTO 32016KT 290V360 9999 BKN016 BKN020 OVC024 07/04 Q1017 TEMPO 30020G35KT 4000 SHRA SCT020CB

TAF TAF EHGG
Valide du 25 à 06h jusqu'au 26 à 12h UTC


250508Z 2506/2612 29015KT 9999 BKN035
BECMG 2506/2508 32020G30KT
TEMPO 2506/2514 33023G35KT 5000 SHRA SHRAGS SCT025CB BKN030
BECMG 2516/2519 34014KT
BECMG 2520/2523 29007KT
PROB30
TEMPO 2601/2609 7000 RA SHRA SCT025TCU BKN030
BECMG 2607/2609 32016KT
Pas de NOTAMs connus pour ce terrain.



MET'MAP, la Météo Aéronautique d'un coup d'oeil ! - Copyright ORBIFLY Décembre 2007 - Disclaimer

ORBIFLY MET'MAP TEAM :

Programmation & Développement : Alexandra Zaïnal
Conception & Développement : Baudouin d'Aumeries
Co-Programmation & Développement : Marc-Olivier Méhu
Soutien technique & logistique : Manuel Goepfert

Contact : metmap@orbifly.com




SOURCES & CREDITS :

   NOAA